createdAt,value
2023-03-03T00:01:38.908Z,8.11
2023-03-03T00:04:05.506Z,8.17
2023-03-03T00:06:32.035Z,8.17
2023-03-03T00:08:58.563Z,8.08
2023-03-03T00:11:25.220Z,8.02
2023-03-03T00:13:53.859Z,8.12
2023-03-03T00:16:39.577Z,8.14
2023-03-03T00:19:19.010Z,8.10
2023-03-03T00:21:47.779Z,8.12
2023-03-03T00:24:14.241Z,8.03
2023-03-03T00:26:44.090Z,8.10
2023-03-03T00:29:31.280Z,8.03
2023-03-03T00:32:22.255Z,7.97
2023-03-03T00:34:50.105Z,7.98
2023-03-03T00:37:46.301Z,7.93
2023-03-03T00:40:16.410Z,7.90
2023-03-03T00:42:49.072Z,7.98
2023-03-03T00:45:27.487Z,7.86
2023-03-03T00:47:54.819Z,7.88
2023-03-03T00:50:25.619Z,7.96
2023-03-03T00:53:13.560Z,8.02
2023-03-03T00:55:40.553Z,7.88
2023-03-03T00:58:07.459Z,7.93
2023-03-03T01:00:41.124Z,7.95
2023-03-03T01:03:14.574Z,7.85
2023-03-03T01:05:41.754Z,7.75
2023-03-03T01:08:08.803Z,7.74
2023-03-03T01:10:40.770Z,7.72
2023-03-03T01:13:07.708Z,7.73
2023-03-03T01:15:34.512Z,7.63
2023-03-03T01:18:01.306Z,7.64
2023-03-03T01:20:28.159Z,7.67
2023-03-03T01:22:54.712Z,7.71
2023-03-03T01:25:21.313Z,7.68
2023-03-03T01:27:48.061Z,7.73
2023-03-03T01:30:15.115Z,7.73
2023-03-03T01:32:41.733Z,7.68
2023-03-03T01:35:08.721Z,7.80
2023-03-03T01:37:36.127Z,7.71
2023-03-03T01:40:05.427Z,7.66
2023-03-03T01:42:32.634Z,7.64
2023-03-03T01:45:21.190Z,7.68
2023-03-03T01:47:58.830Z,7.59
2023-03-03T01:50:35.866Z,7.48
2023-03-03T01:53:06.349Z,7.59
2023-03-03T01:55:39.571Z,7.61
2023-03-03T01:58:29.321Z,7.59
2023-03-03T02:01:05.670Z,7.46
2023-03-03T02:03:33.791Z,7.61
2023-03-03T02:06:07.969Z,7.50
2023-03-03T02:08:42.421Z,7.51
2023-03-03T02:11:11.015Z,7.49
2023-03-03T02:13:37.691Z,7.48
2023-03-03T02:16:04.622Z,7.57
2023-03-03T02:18:31.321Z,7.56
2023-03-03T02:21:10.622Z,7.55
2023-03-03T02:24:00.557Z,7.64
2023-03-03T02:26:29.754Z,7.56
2023-03-03T02:29:01.362Z,7.62
2023-03-03T02:31:31.451Z,7.65
2023-03-03T02:33:58.546Z,7.57
2023-03-03T02:36:31.598Z,7.51
2023-03-03T02:39:07.130Z,7.56
2023-03-03T02:41:41.119Z,7.49
2023-03-03T02:44:13.933Z,7.47
2023-03-03T02:46:43.636Z,7.55
2023-03-03T02:49:12.472Z,7.48
2023-03-03T02:51:39.823Z,7.36
2023-03-03T02:54:08.303Z,7.49
2023-03-03T02:56:35.931Z,7.43
2023-03-03T02:59:04.963Z,7.46
2023-03-03T03:01:38.981Z,7.59
2023-03-03T03:04:16.042Z,7.56
2023-03-03T03:06:45.688Z,7.64
2023-03-03T03:09:15.032Z,7.55
2023-03-03T03:11:42.732Z,7.61
2023-03-03T03:14:12.727Z,7.73
2023-03-03T03:16:40.139Z,7.85
2023-03-03T03:19:07.309Z,7.99
2023-03-03T03:21:35.351Z,7.97
2023-03-03T03:24:02.464Z,8.14
2023-03-03T03:26:29.605Z,8.22
2023-03-03T03:28:56.542Z,8.25
2023-03-03T03:31:23.132Z,8.19
2023-03-03T03:33:49.710Z,8.40
2023-03-03T03:36:17.285Z,8.54
2023-03-03T03:38:44.067Z,8.61
2023-03-03T03:41:12.673Z,8.46
2023-03-03T03:43:39.586Z,8.53
2023-03-03T03:46:06.488Z,8.55
2023-03-03T03:48:34.034Z,8.51
2023-03-03T03:51:02.596Z,8.51
2023-03-03T03:53:30.318Z,8.59
2023-03-03T03:55:56.939Z,8.67
2023-03-03T03:58:23.751Z,8.73
2023-03-03T04:00:56.319Z,8.76
2023-03-03T04:03:23.110Z,8.90
2023-03-03T04:05:52.879Z,8.89
2023-03-03T04:08:19.965Z,8.92
2023-03-03T04:10:46.560Z,9.00
2023-03-03T04:13:13.126Z,9.00
2023-03-03T04:15:39.808Z,9.12
2023-03-03T04:18:06.461Z,9.14
2023-03-03T04:20:33.052Z,9.10
2023-03-03T04:22:59.610Z,9.04
2023-03-03T04:25:26.748Z,9.18
2023-03-03T04:27:54.370Z,9.25
2023-03-03T04:30:22.613Z,9.23
2023-03-03T04:32:53.214Z,9.17
2023-03-03T04:35:22.314Z,9.04
2023-03-03T04:37:49.017Z,9.23
2023-03-03T04:40:18.178Z,9.21
2023-03-03T04:42:47.110Z,9.20
2023-03-03T04:45:13.756Z,9.21
2023-03-03T04:47:40.534Z,9.28
2023-03-03T04:50:09.400Z,9.29
2023-03-03T04:52:36.246Z,9.32
2023-03-03T04:55:04.607Z,9.42
2023-03-03T04:57:31.968Z,9.33
2023-03-03T04:59:58.642Z,9.53
2023-03-03T05:02:25.433Z,9.39
2023-03-03T05:04:52.359Z,9.43
2023-03-03T05:07:19.992Z,9.51
2023-03-03T05:09:46.546Z,9.55
2023-03-03T05:12:13.108Z,9.57
2023-03-03T05:14:39.654Z,9.58
2023-03-03T05:17:06.248Z,9.58
2023-03-03T05:19:34.815Z,9.53
2023-03-03T05:22:02.018Z,9.56
2023-03-03T05:24:28.579Z,9.61
2023-03-03T05:26:55.268Z,9.61
2023-03-03T05:29:21.810Z,9.65
2023-03-03T05:31:48.426Z,9.77
2023-03-03T05:34:15.096Z,9.77
2023-03-03T05:36:41.609Z,9.76
2023-03-03T05:39:08.129Z,9.73
2023-03-03T05:41:36.796Z,9.74
2023-03-03T05:44:03.674Z,9.77
2023-03-03T05:46:30.299Z,9.73
2023-03-03T05:48:56.986Z,9.69
2023-03-03T05:51:23.625Z,9.69
2023-03-03T05:53:50.218Z,9.59
2023-03-03T05:56:16.805Z,9.63
2023-03-03T05:58:43.676Z,9.66
2023-03-03T06:01:10.405Z,9.80
2023-03-03T06:03:36.951Z,9.89
2023-03-03T06:06:04.206Z,9.76
2023-03-03T06:08:32.422Z,9.83
2023-03-03T06:10:59.026Z,9.84
2023-03-03T06:13:25.976Z,9.98
2023-03-03T06:15:52.713Z,9.96
2023-03-03T06:18:19.252Z,9.94
2023-03-03T06:20:45.769Z,9.83
2023-03-03T06:23:12.343Z,9.92
2023-03-03T06:25:39.520Z,9.88
2023-03-03T06:28:06.156Z,9.60
2023-03-03T06:30:32.693Z,9.57
2023-03-03T06:32:59.296Z,9.73
2023-03-03T06:35:25.891Z,9.68
2023-03-03T06:37:52.514Z,9.68
2023-03-03T06:40:19.378Z,9.63
2023-03-03T06:42:46.044Z,9.65
2023-03-03T06:45:12.751Z,9.74
2023-03-03T06:47:39.316Z,9.69
2023-03-03T06:50:06.938Z,9.76
2023-03-03T06:52:33.860Z,9.90
2023-03-03T06:55:09.692Z,9.92
2023-03-03T06:57:37.309Z,10.03
2023-03-03T07:00:12.918Z,9.96
2023-03-03T07:02:40.128Z,10.12
2023-03-03T07:05:14.089Z,10.10
2023-03-03T07:07:40.627Z,9.78
2023-03-03T07:10:17.911Z,9.94
2023-03-03T07:12:44.431Z,9.94
2023-03-03T07:15:20.475Z,10.01
2023-03-03T07:17:51.196Z,10.05
2023-03-03T07:20:52.003Z,10.13
2023-03-03T07:23:25.889Z,9.41
2023-03-03T07:25:52.804Z,9.85
2023-03-03T07:28:22.971Z,9.95
2023-03-03T07:30:49.610Z,10.14
2023-03-03T07:33:35.009Z,10.15
2023-03-03T07:36:04.070Z,10.40
2023-03-03T07:38:53.187Z,10.39
2023-03-03T07:41:20.829Z,10.35
2023-03-03T07:43:54.601Z,10.38
2023-03-03T07:46:42.859Z,10.40
2023-03-03T07:49:22.219Z,10.34
2023-03-03T07:51:53.804Z,10.34
2023-03-03T07:54:29.407Z,10.33
2023-03-03T07:57:11.335Z,10.46
2023-03-03T07:59:41.720Z,10.47
2023-03-03T08:02:29.979Z,10.42
2023-03-03T08:04:56.605Z,10.42
2023-03-03T08:07:23.543Z,10.43
2023-03-03T08:09:56.306Z,10.37
2023-03-03T08:12:27.689Z,10.44
2023-03-03T08:14:55.721Z,10.52
2023-03-03T08:17:26.305Z,10.73
2023-03-03T08:19:55.304Z,10.67
2023-03-03T08:22:33.777Z,10.75
2023-03-03T08:25:00.324Z,10.84
2023-03-03T08:27:26.852Z,10.85
2023-03-03T08:29:53.544Z,10.55
2023-03-03T08:32:20.252Z,10.90
2023-03-03T08:34:46.803Z,11.16
2023-03-03T08:37:13.358Z,11.35
2023-03-03T08:39:40.243Z,11.48
2023-03-03T08:42:06.779Z,11.43
2023-03-03T08:44:33.568Z,11.01
2023-03-03T08:47:00.158Z,11.19
2023-03-03T08:49:26.733Z,11.29
2023-03-03T08:52:00.654Z,11.34
2023-03-03T08:54:27.173Z,11.41
2023-03-03T08:56:53.771Z,11.58
2023-03-03T08:59:20.422Z,11.30
2023-03-03T09:01:46.987Z,11.54
2023-03-03T09:04:13.642Z,11.83
2023-03-03T09:06:40.279Z,11.85
2023-03-03T09:09:06.898Z,11.83
2023-03-03T09:11:33.725Z,11.82
2023-03-03T09:14:11.971Z,12.06
2023-03-03T09:16:48.221Z,12.04
2023-03-03T09:19:26.747Z,11.73
2023-03-03T09:21:55.308Z,11.90
2023-03-03T09:24:30.073Z,11.63
2023-03-03T09:26:58.913Z,11.77
2023-03-03T09:29:29.177Z,11.68
2023-03-03T09:32:02.092Z,12.20
2023-03-03T09:34:42.440Z,12.30
2023-03-03T09:37:23.113Z,12.50
2023-03-03T09:39:58.957Z,12.65
2023-03-03T09:43:13.405Z,12.74
2023-03-03T09:46:19.169Z,13.01
2023-03-03T09:48:57.982Z,12.99
2023-03-03T09:51:36.784Z,13.33
2023-03-03T09:54:23.583Z,13.66
2023-03-03T09:57:12.913Z,13.27
2023-03-03T09:59:49.768Z,12.98
2023-03-03T10:02:34.832Z,13.22
2023-03-03T10:05:26.466Z,13.33
2023-03-03T10:07:58.855Z,12.89
2023-03-03T10:10:59.088Z,12.88
2023-03-03T10:13:50.395Z,13.33
2023-03-03T10:16:41.870Z,13.60
2023-03-03T10:19:40.332Z,13.20
2023-03-03T10:22:16.228Z,13.14
2023-03-03T10:24:54.961Z,13.42
2023-03-03T10:27:36.314Z,13.61
2023-03-03T10:30:39.932Z,13.00
2023-03-03T10:33:27.574Z,12.78
2023-03-03T10:36:06.661Z,13.17
2023-03-03T10:39:01.695Z,13.35
2023-03-03T10:42:01.912Z,13.51
2023-03-03T10:44:59.971Z,13.75
2023-03-03T10:47:58.041Z,13.39
2023-03-03T10:50:36.432Z,13.33
2023-03-03T10:53:18.223Z,13.70
2023-03-03T10:55:54.607Z,14.10
2023-03-03T10:58:39.511Z,14.24
2023-03-03T11:01:26.873Z,14.19
2023-03-03T11:04:11.449Z,13.81
2023-03-03T11:06:58.723Z,13.84
2023-03-03T11:09:53.984Z,14.09
2023-03-03T11:12:53.502Z,14.22
2023-03-03T11:15:34.379Z,14.73
2023-03-03T11:18:33.738Z,14.90
2023-03-03T11:21:37.607Z,14.65
2023-03-03T11:24:10.061Z,14.13
2023-03-03T11:26:55.709Z,14.36
2023-03-03T11:29:25.335Z,14.05
2023-03-03T11:32:23.064Z,14.25
2023-03-03T11:35:04.489Z,14.23
2023-03-03T11:37:45.360Z,14.48
2023-03-03T11:40:22.236Z,14.70
2023-03-03T11:42:58.506Z,14.32
2023-03-03T11:45:37.525Z,14.53
2023-03-03T11:48:34.409Z,14.81
2023-03-03T11:51:06.338Z,14.79
2023-03-03T11:53:58.607Z,15.03
2023-03-03T11:56:34.112Z,14.91
2023-03-03T11:59:25.873Z,14.46
2023-03-03T12:02:17.591Z,14.99
2023-03-03T12:04:54.027Z,15.35
2023-03-03T12:07:42.234Z,15.39
2023-03-03T12:10:11.610Z,15.85
2023-03-03T12:12:44.374Z,16.13
2023-03-03T12:16:00.251Z,16.37
2023-03-03T12:18:39.149Z,15.69
2023-03-03T12:21:38.595Z,15.68
2023-03-03T12:24:32.721Z,16.02
2023-03-03T12:27:19.716Z,16.12
2023-03-03T12:29:58.778Z,16.43
2023-03-03T12:32:46.543Z,16.17
2023-03-03T12:35:26.759Z,16.63
2023-03-03T12:38:49.178Z,16.67
2023-03-03T12:41:38.064Z,16.94
2023-03-03T12:44:18.475Z,16.48
2023-03-03T12:47:05.334Z,16.37
2023-03-03T12:50:01.156Z,16.15
2023-03-03T12:52:46.621Z,16.13
2023-03-03T12:55:30.867Z,16.01
2023-03-03T12:58:16.093Z,16.23
2023-03-03T13:01:20.073Z,15.93
2023-03-03T13:04:07.815Z,15.61
2023-03-03T13:06:49.004Z,15.89
2023-03-03T13:09:24.343Z,15.87
2023-03-03T13:12:09.737Z,16.22
2023-03-03T13:14:52.699Z,15.74
2023-03-03T13:17:25.809Z,15.18
2023-03-03T13:19:56.417Z,15.26
2023-03-03T13:22:49.063Z,15.78
2023-03-03T13:25:26.699Z,16.20
2023-03-03T13:27:59.679Z,16.47
2023-03-03T13:30:32.737Z,16.38
2023-03-03T13:33:10.068Z,16.34
2023-03-03T13:35:48.394Z,16.47
2023-03-03T13:38:22.275Z,16.57
2023-03-03T13:41:09.104Z,16.25
2023-03-03T13:44:00.669Z,16.25
2023-03-03T13:46:36.215Z,16.70
2023-03-03T13:49:47.561Z,16.82
2023-03-03T13:52:23.478Z,16.66
2023-03-03T13:54:52.817Z,16.94
2023-03-03T13:57:58.882Z,16.63
2023-03-03T14:00:54.209Z,16.55
2023-03-03T14:03:24.097Z,17.12
2023-03-03T14:06:21.769Z,17.51
2023-03-03T14:09:09.646Z,17.89
2023-03-03T14:11:47.184Z,17.27
2023-03-03T14:14:23.461Z,17.74
2023-03-03T14:17:02.939Z,17.71
2023-03-03T14:19:36.766Z,17.77
2023-03-03T14:22:31.226Z,18.12
2023-03-03T14:25:08.469Z,17.55
2023-03-03T14:28:14.023Z,18.45
2023-03-03T14:30:44.371Z,17.93
2023-03-03T14:33:10.897Z,18.44
2023-03-03T14:35:57.892Z,19.27
2023-03-03T14:38:37.008Z,19.49
2023-03-03T14:41:36.090Z,20.20
2023-03-03T14:44:22.590Z,20.82
2023-03-03T14:47:10.335Z,22.54
2023-03-03T14:49:39.399Z,23.28
2023-03-03T14:52:27.938Z,24.42
2023-03-03T14:55:05.247Z,24.73
2023-03-03T14:57:41.540Z,24.67
2023-03-03T15:00:15.063Z,23.38
2023-03-03T15:03:17.584Z,22.16
2023-03-03T15:05:52.574Z,21.79
2023-03-03T15:08:35.047Z,21.81
2023-03-03T15:11:16.380Z,22.70
2023-03-03T15:13:43.114Z,23.08
2023-03-03T15:16:24.309Z,23.45
2023-03-03T15:19:00.408Z,22.80
2023-03-03T15:21:32.172Z,22.99
2023-03-03T15:24:32.899Z,22.56
2023-03-03T15:27:09.190Z,21.73
2023-03-03T15:29:55.406Z,22.46
2023-03-03T15:33:08.287Z,21.54
2023-03-03T15:35:40.516Z,20.84
2023-03-03T15:38:49.194Z,20.71
2023-03-03T15:41:40.660Z,20.20
2023-03-03T15:44:30.153Z,19.18
2023-03-03T15:47:18.529Z,18.52
2023-03-03T15:50:06.787Z,18.11
2023-03-03T15:53:05.300Z,17.91
2023-03-03T15:55:31.799Z,17.62
2023-03-03T15:58:22.435Z,17.21
2023-03-03T16:01:10.601Z,17.02
2023-03-03T16:03:45.615Z,17.06
2023-03-03T16:06:37.326Z,16.72
2023-03-03T16:09:31.799Z,16.34
2023-03-03T16:12:17.229Z,16.14
2023-03-03T16:15:04.356Z,16.10
2023-03-03T16:17:52.098Z,16.05
2023-03-03T16:20:29.533Z,15.79
2023-03-03T16:23:03.540Z,15.67
2023-03-03T16:25:59.519Z,15.44
2023-03-03T16:28:33.157Z,15.61
2023-03-03T16:31:17.157Z,15.50
2023-03-03T16:33:55.043Z,15.35
2023-03-03T16:36:46.844Z,15.30
2023-03-03T16:39:30.593Z,15.23
2023-03-03T16:42:16.069Z,15.05
2023-03-03T16:45:01.976Z,15.00
2023-03-03T16:47:54.691Z,14.87
2023-03-03T16:50:45.724Z,14.73
2023-03-03T16:53:39.853Z,14.74
2023-03-03T16:56:25.498Z,14.49
2023-03-03T16:59:29.147Z,14.42
2023-03-03T17:02:01.575Z,14.19
2023-03-03T17:04:46.368Z,14.24
2023-03-03T17:07:33.172Z,14.13
2023-03-03T17:10:20.698Z,13.99
2023-03-03T17:12:54.622Z,13.99
2023-03-03T17:15:21.010Z,14.01
2023-03-03T17:18:06.827Z,13.86
2023-03-03T17:20:50.268Z,13.83
2023-03-03T17:23:35.268Z,13.64
2023-03-03T17:26:20.673Z,13.64
2023-03-03T17:29:05.366Z,13.54
2023-03-03T17:31:55.236Z,13.51
2023-03-03T17:34:36.897Z,13.38
2023-03-03T17:37:24.414Z,13.05
2023-03-03T17:40:05.507Z,13.15
2023-03-03T17:42:46.437Z,12.95
2023-03-03T17:45:17.636Z,12.98
2023-03-03T17:47:53.408Z,13.11
2023-03-03T17:51:03.568Z,13.01
2023-03-03T17:53:50.714Z,12.92
2023-03-03T17:56:22.856Z,12.85
2023-03-03T17:59:17.523Z,12.80
2023-03-03T18:02:02.567Z,12.74
2023-03-03T18:05:26.693Z,12.63
2023-03-03T18:08:23.128Z,12.60
2023-03-03T18:11:46.867Z,12.54
2023-03-03T18:14:28.994Z,12.50
2023-03-03T18:17:22.496Z,12.15
2023-03-03T18:19:59.180Z,11.90
2023-03-03T18:22:33.736Z,11.94
2023-03-03T18:25:18.028Z,11.90
2023-03-03T18:27:45.565Z,11.96
2023-03-03T18:30:20.127Z,11.92
2023-03-03T18:32:55.591Z,11.82
2023-03-03T18:35:32.707Z,11.73
2023-03-03T18:38:17.869Z,11.65
2023-03-03T18:40:58.226Z,11.53
2023-03-03T18:43:40.140Z,11.45
2023-03-03T18:46:25.013Z,11.37
2023-03-03T18:48:57.010Z,11.33
2023-03-03T18:51:38.962Z,11.27
2023-03-03T18:54:18.694Z,11.14
2023-03-03T18:56:55.896Z,11.14
2023-03-03T18:59:31.586Z,10.98
2023-03-03T19:02:24.639Z,11.01
2023-03-03T19:04:55.973Z,10.98
2023-03-03T19:07:42.834Z,10.97
2023-03-03T19:10:21.981Z,10.92
2023-03-03T19:12:54.616Z,10.84
2023-03-03T19:15:49.593Z,10.75
2023-03-03T19:18:49.445Z,10.70
2023-03-03T19:21:22.643Z,10.57
2023-03-03T19:23:54.577Z,10.62
2023-03-03T19:26:30.298Z,10.50
2023-03-03T19:29:20.045Z,10.44
2023-03-03T19:31:53.010Z,10.40
2023-03-03T19:34:25.407Z,10.33
2023-03-03T19:37:24.304Z,10.31
2023-03-03T19:39:51.047Z,10.23
2023-03-03T19:42:47.433Z,10.11
2023-03-03T19:45:29.250Z,10.33
2023-03-03T19:48:18.802Z,10.39
2023-03-03T19:50:58.663Z,10.17
2023-03-03T19:53:39.052Z,10.05
2023-03-03T19:56:20.507Z,10.07
2023-03-03T19:58:49.950Z,10.06
2023-03-03T20:01:25.580Z,9.96
2023-03-03T20:04:10.338Z,9.92
2023-03-03T20:06:42.529Z,9.89
2023-03-03T20:09:33.399Z,9.77
2023-03-03T20:12:27.362Z,9.74
2023-03-03T20:15:18.732Z,9.84
2023-03-03T20:18:14.070Z,9.76
2023-03-03T20:20:49.554Z,9.68
2023-03-03T20:23:42.369Z,9.62
2023-03-03T20:26:24.785Z,9.51
2023-03-03T20:29:13.233Z,9.54
2023-03-03T20:31:50.748Z,9.44
2023-03-03T20:34:31.578Z,9.46
2023-03-03T20:37:44.738Z,9.33
2023-03-03T20:40:20.713Z,9.45
2023-03-03T20:43:16.707Z,9.33
2023-03-03T20:46:17.842Z,9.26
2023-03-03T20:48:44.342Z,9.20
2023-03-03T20:51:23.522Z,9.26
2023-03-03T20:53:52.806Z,9.16
2023-03-03T20:56:24.063Z,9.23
2023-03-03T20:59:02.619Z,9.13
2023-03-03T21:01:34.895Z,9.14
2023-03-03T21:04:38.242Z,9.10
2023-03-03T21:07:05.761Z,8.90
2023-03-03T21:09:38.970Z,9.04
2023-03-03T21:12:31.300Z,9.09
2023-03-03T21:15:08.143Z,8.95
2023-03-03T21:17:34.713Z,8.93
2023-03-03T21:20:29.665Z,8.94
2023-03-03T21:22:57.697Z,8.89
2023-03-03T21:25:46.829Z,8.88
2023-03-03T21:28:29.278Z,8.87
2023-03-03T21:31:05.361Z,8.76
2023-03-03T21:33:48.660Z,8.84
2023-03-03T21:36:16.683Z,8.88
2023-03-03T21:38:45.258Z,8.85
2023-03-03T21:41:13.782Z,8.83
2023-03-03T21:43:49.542Z,8.87
2023-03-03T21:46:21.373Z,8.77
2023-03-03T21:48:48.392Z,8.79
2023-03-03T21:51:15.495Z,8.87
2023-03-03T21:53:44.002Z,8.87
2023-03-03T21:56:13.781Z,8.90
2023-03-03T21:58:41.426Z,8.89
2023-03-03T22:01:08.372Z,8.88
2023-03-03T22:03:35.411Z,8.91
2023-03-03T22:06:02.736Z,8.90
2023-03-03T22:08:29.333Z,8.85
2023-03-03T22:10:56.199Z,8.88
2023-03-03T22:13:24.266Z,8.86
2023-03-03T22:15:51.756Z,8.68
2023-03-03T22:18:18.936Z,8.81
2023-03-03T22:20:47.076Z,8.82
2023-03-03T22:23:15.560Z,8.87
2023-03-03T22:25:42.574Z,8.81
2023-03-03T22:28:09.160Z,8.81
2023-03-03T22:30:36.776Z,8.84
2023-03-03T22:33:03.430Z,8.83
2023-03-03T22:35:30.042Z,8.79
2023-03-03T22:37:56.595Z,8.73
2023-03-03T22:40:23.415Z,8.77
2023-03-03T22:42:50.150Z,8.84
2023-03-03T22:45:16.773Z,8.80
2023-03-03T22:47:43.358Z,8.79
2023-03-03T22:50:10.676Z,8.76
2023-03-03T22:52:37.331Z,8.74
2023-03-03T22:55:04.616Z,8.77
2023-03-03T22:57:31.374Z,8.65
2023-03-03T22:59:59.836Z,8.71
2023-03-03T23:02:26.390Z,8.63
2023-03-03T23:04:58.068Z,8.65
2023-03-03T23:07:26.310Z,8.64
2023-03-03T23:09:52.968Z,8.66
2023-03-03T23:12:19.893Z,8.60
2023-03-03T23:14:46.476Z,8.62
2023-03-03T23:17:13.008Z,8.60
2023-03-03T23:19:39.550Z,8.49
2023-03-03T23:22:06.132Z,8.47
2023-03-03T23:24:33.177Z,8.40
2023-03-03T23:27:00.682Z,8.43
2023-03-03T23:29:27.243Z,8.29
2023-03-03T23:31:53.812Z,8.41
2023-03-03T23:34:20.350Z,8.37
2023-03-03T23:36:47.157Z,8.34
2023-03-03T23:39:13.767Z,8.21
2023-03-03T23:41:40.292Z,7.80
2023-03-03T23:44:06.840Z,7.89
2023-03-03T23:46:33.516Z,7.92
2023-03-03T23:49:01.985Z,8.12
2023-03-03T23:51:28.625Z,8.09
2023-03-03T23:53:55.201Z,8.11
2023-03-03T23:56:21.863Z,8.13
2023-03-03T23:58:48.439Z,8.01
